FTI YMLT-YMLT
Flight info
| Callsign | FTI |
|---|---|
| Flight time | N/A |
| Altitude | 1500 |
| Route | DCT |
| Aircraft | C172/L-V/N |
Departure
| Time | 2026-04-17 09:25 |
|---|---|
| Airport | Launceston Airport (YMLT) |
Arrival
| Time | N/A |
|---|---|
| Airport | Launceston Airport (YMLT) |
| Time | Latitude | Longitude | Altitude | Speed | Heading |
|---|---|---|---|---|---|
| 2026-04-17 09:18 | -41.55051 | 147.21231 | 572 ft | 0 kts | 325° |
| 2026-04-17 09:19 | -41.55025 | 147.21217 | 575 ft | 9 kts | 3° |
| 2026-04-17 09:20 | -41.54955 | 147.21266 | 577 ft | 9 kts | 39° |
| 2026-04-17 09:20 | -41.54897 | 147.21243 | 578 ft | 11 kts | 328° |
| 2026-04-17 09:20 | -41.54819 | 147.21176 | 579 ft | 15 kts | 327° |
| 2026-04-17 09:20 | -41.54725 | 147.21096 | 582 ft | 17 kts | 327° |
| 2026-04-17 09:21 | -41.54616 | 147.21002 | 582 ft | 17 kts | 331° |
| 2026-04-17 09:21 | -41.54522 | 147.20919 | 583 ft | 16 kts | 328° |
| 2026-04-17 09:21 | -41.54415 | 147.20830 | 578 ft | 19 kts | 324° |
| 2026-04-17 09:21 | -41.54305 | 147.20735 | 578 ft | 19 kts | 327° |
| 2026-04-17 09:22 | -41.54197 | 147.20644 | 578 ft | 18 kts | 327° |
| 2026-04-17 09:22 | -41.54093 | 147.20555 | 578 ft | 18 kts | 328° |
| 2026-04-17 09:22 | -41.53994 | 147.20471 | 581 ft | 16 kts | 328° |
| 2026-04-17 09:22 | -41.53904 | 147.20395 | 583 ft | 14 kts | 329° |
| 2026-04-17 09:23 | -41.53827 | 147.20330 | 586 ft | 12 kts | 331° |
| 2026-04-17 09:23 | -41.53754 | 147.20349 | 589 ft | 12 kts | 43° |
| 2026-04-17 09:23 | -41.53753 | 147.20451 | 590 ft | 15 kts | 133° |
| 2026-04-17 09:23 | -41.53943 | 147.20617 | 586 ft | 57 kts | 144° |
| 2026-04-17 09:24 | -41.53964 | 147.20636 | 586 ft | 60 kts | 148° |
| 2026-04-17 09:24 | -41.54302 | 147.20960 | 637 ft | 80 kts | 151° |
| 2026-04-17 09:24 | -41.54779 | 147.21381 | 838 ft | 83 kts | 148° |
| 2026-04-17 09:24 | -41.55227 | 147.21872 | 1077 ft | 87 kts | 144° |
| 2026-04-17 09:25 | -41.55682 | 147.22370 | 1301 ft | 82 kts | 164° |
| 2026-04-17 09:25 | -41.56211 | 147.22279 | 1534 ft | 81 kts | 207° |
| 2026-04-17 09:25 | -41.56653 | 147.21795 | 1477 ft | 85 kts | 221° |
| 2026-04-17 09:25 | -41.57050 | 147.21200 | 1425 ft | 86 kts | 234° |
| 2026-04-17 09:26 | -41.57438 | 147.20531 | 1478 ft | 94 kts | 228° |
| 2026-04-17 09:26 | -41.57978 | 147.20075 | 1549 ft | 96 kts | 203° |
| 2026-04-17 09:26 | -41.58554 | 147.19750 | 1578 ft | 88 kts | 202° |
| 2026-04-17 09:26 | -41.59155 | 147.19414 | 1487 ft | 95 kts | 205° |
| 2026-04-17 09:27 | -41.59695 | 147.19098 | 1612 ft | 82 kts | 205° |
| 2026-04-17 09:27 | -41.60224 | 147.18743 | 1592 ft | 87 kts | 210° |
| 2026-04-17 09:27 | -41.60763 | 147.18350 | 1541 ft | 91 kts | 210° |
| 2026-04-17 09:27 | -41.61330 | 147.17939 | 1545 ft | 89 kts | 208° |
| 2026-04-17 09:28 | -41.61869 | 147.17564 | 1482 ft | 97 kts | 209° |
| 2026-04-17 09:28 | -41.62421 | 147.17142 | 1704 ft | 85 kts | 222° |
| 2026-04-17 09:28 | -41.62649 | 147.16546 | 2098 ft | 74 kts | 256° |
| 2026-04-17 09:28 | -41.62563 | 147.15801 | 2364 ft | 81 kts | 271° |
| 2026-04-17 09:29 | -41.62478 | 147.15103 | 2712 ft | 73 kts | 267° |
| 2026-04-17 09:29 | -41.62426 | 147.14443 | 2997 ft | 70 kts | 265° |
| 2026-04-17 09:29 | -41.62395 | 147.13748 | 3066 ft | 86 kts | 264° |
| 2026-04-17 09:29 | -41.62384 | 147.12939 | 3016 ft | 90 kts | 265° |
| 2026-04-17 09:30 | -41.62365 | 147.12046 | 2946 ft | 104 kts | 264° |
| 2026-04-17 09:30 | -41.62337 | 147.11066 | 2965 ft | 103 kts | 267° |
| 2026-04-17 09:30 | -41.62288 | 147.10107 | 2914 ft | 104 kts | 269° |
| 2026-04-17 09:30 | -41.62234 | 147.09151 | 2877 ft | 106 kts | 268° |
| 2026-04-17 09:31 | -41.62178 | 147.08156 | 2816 ft | 107 kts | 256° |
| 2026-04-17 09:31 | -41.62778 | 147.08058 | 2759 ft | 125 kts | 124° |
| 2026-04-17 09:31 | -41.62342 | 147.08885 | 2871 ft | 131 kts | 351° |
| 2026-04-17 09:31 | -41.61911 | 147.08151 | 3059 ft | 103 kts | 266° |
| 2026-04-17 09:32 | -41.61438 | 147.07404 | 3043 ft | 135 kts | 353° |
| 2026-04-17 09:32 | -41.60887 | 147.08284 | 2984 ft | 136 kts | 106° |
| 2026-04-17 09:32 | -41.61499 | 147.08743 | 2958 ft | 112 kts | 217° |
| 2026-04-17 09:32 | -41.61497 | 147.07736 | 2863 ft | 123 kts | 282° |
| 2026-04-17 09:33 | -41.61342 | 147.06678 | 3072 ft | 92 kts | 239° |
| 2026-04-17 09:33 | -41.61748 | 147.06844 | 3396 ft | 100 kts | 101° |
| 2026-04-17 09:33 | -41.61833 | 147.07786 | 3239 ft | 103 kts | 141° |
| 2026-04-17 09:33 | -41.62224 | 147.07392 | 2708 ft | 121 kts | 292° |
| 2026-04-17 09:34 | -41.61797 | 147.06404 | 2661 ft | 123 kts | 288° |
| 2026-04-17 09:34 | -41.61602 | 147.05473 | 2962 ft | 95 kts | 249° |
| 2026-04-17 09:34 | -41.61612 | 147.04335 | 2130 ft | 123 kts | 277° |
| 2026-04-17 09:34 | -41.61372 | 147.03354 | 2482 ft | 104 kts | 307° |
| 2026-04-17 09:35 | -41.60802 | 147.02962 | 2368 ft | 126 kts | 326° |
| 2026-04-17 09:35 | -41.60534 | 147.02266 | 2766 ft | 75 kts | 210° |
| 2026-04-17 09:35 | -41.60985 | 147.02486 | 3079 ft | 63 kts | 156° |
| 2026-04-17 09:35 | -41.61324 | 147.02854 | 2706 ft | 95 kts | 161° |
| 2026-04-17 09:36 | -41.61917 | 147.03254 | 2897 ft | 81 kts | 163° |
| 2026-04-17 09:36 | -41.62268 | 147.03489 | 2824 ft | 66 kts | 173° |
| 2026-04-17 09:36 | -41.62893 | 147.03695 | 2666 ft | 107 kts | 149° |
| 2026-04-17 09:36 | -41.63000 | 147.04116 | 1352 ft | 70 kts | 300° |